Hauptseite
METAR-TAF:

METAR-TAF

Flughäfen :

Whale Cove, Nunavut, Kanada

Breite: 62-14N, Länge: 092-36W, Höhe: 20 m

Beobachtung

Neuester Wetterbericht von vor 2 Stunden und 0 Minuten, um 21:00 UTC
Wind 12 kt aus Südost
Temperatur -16°C
Luftfeuchtigkeit 84%
Luftdruck 1016 hPa
Sichtweite: 16.1 km
Leicht bewölkt in der Höhe von 10000 ft
Aufgelockert bewölkt in der Höhe von 23000 ft
Eisnadeln

METAR: CYXN 092100Z 13012KT 10SM IC FEW100 SCT230 M16/M18 A3001 RMK AC1CI2 -15.0/-25.0/0.2MM/LAST STFD OBS/NEXT 101300Z SLP165

Zeit: 17:00 (23:00 UTC)


TAF: fehlend

Wetterbeobachtungen und Prognosen von mehr als 4000 Flughäfen (METAR und TAF Bericht).

Die verfügbaren Stationen werden durch gelbe und rote Markierungen auf der Karte dargestellt.

Führen Sie die Maus auf sie, um den Namen der Station zu sehen.

Darauf klicken, um die Beobachtung von Wetterbeobachtungen und Prognosen zu sehen.

Um die Karte zu ändern : klicken Sie auf den grünen Tasten mit einem schwarzen Kreuz Zum Vergrößern, auf den grünen Button mit einem Gedankenstrich zu verkleinern, oder auf die grünen Pfeile für benachbarte Karten.


METAR-TAF: